Time;durP1;ratioP1;P1;durP2;ratioP2;P2;SDS_P1;SDS_P2;PMS_P1;PMS_P2;Temp;Humidity;BMP_temperature;BMP_pressure;BME280_temperature;BME280_humidity;BME280_pressure;Samples;Min_cycle;Max_cycle;Signal;HPM_P1;HPM_P2
2022/01/28 00:01:06;;;;;;;5.80;1.63;;;7.90;99.90;;;;;;5029956;28;20198;-72
2022/01/28 00:03:36;;;;;;;6.33;1.57;;;7.90;99.90;;;;;;5034236;28;20186;-72
2022/01/28 00:06:07;;;;;;;5.07;1.37;;;7.90;99.90;;;;;;5029381;28;20185;-72
2022/01/28 00:08:32;;;;;;;4.00;1.27;;;7.90;99.90;;;;;;5032251;28;20293;-72
2022/01/28 00:10:58;;;;;;;5.23;1.17;;;7.90;99.90;;;;;;5030336;28;20281;-73
2022/01/28 00:13:29;;;;;;;5.37;1.60;;;7.90;99.90;;;;;;5025286;28;20190;-72
2022/01/28 00:18:53;;;;;;;5.37;1.13;;;7.90;99.90;;;;;;5040000;28;20181;-72
2022/01/28 00:40:25;;;;;;;6.00;1.87;;;7.80;99.90;;;;;;5026503;28;20170;-69
2022/01/28 00:42:53;;;;;;;4.30;1.27;;;7.80;99.90;;;;;;5033702;28;20193;-72
2022/01/28 00:45:19;;;;;;;3.63;1.37;;;7.80;99.90;;;;;;5028122;28;20181;-72
2022/01/28 00:47:47;;;;;;;7.47;1.70;;;7.80;99.90;;;;;;5029371;28;20205;-70
2022/01/28 00:50:18;;;;;;;5.20;1.50;;;7.80;99.90;;;;;;5032132;28;20189;-72
2022/01/28 00:52:44;;;;;;;4.83;1.20;;;7.80;99.90;;;;;;5026293;28;20193;-72
2022/01/28 00:55:09;;;;;;;5.23;1.50;;;7.90;99.90;;;;;;5029632;28;20213;-72
2022/01/28 00:57:40;;;;;;;3.77;1.30;;;7.80;99.90;;;;;;5030248;28;20186;-72
2022/01/28 01:00:12;;;;;;;6.17;1.37;;;7.80;99.90;;;;;;5029120;28;20186;-71
2022/01/28 01:02:40;;;;;;;5.37;1.63;;;7.80;99.90;;;;;;5037192;28;20210;-70
2022/01/28 01:05:06;;;;;;;6.67;1.50;;;7.80;99.90;;;;;;5033994;28;20236;-71
2022/01/28 01:07:32;;;;;;;10.63;1.77;;;7.80;99.90;;;;;;5026024;28;20189;-71
2022/01/28 01:10:04;;;;;;;7.57;1.60;;;7.80;99.90;;;;;;5041603;28;20184;-70
2022/01/28 01:12:32;;;;;;;5.53;1.70;;;7.80;99.90;;;;;;5030276;28;20186;-70
2022/01/28 01:14:58;;;;;;;5.03;1.40;;;7.80;99.90;;;;;;5030359;28;20213;-69
2022/01/28 01:20:10;;;;;;;7.17;1.80;;;7.80;99.90;;;;;;5025136;28;20208;-71
2022/01/28 01:22:38;;;;;;;4.90;1.47;;;7.80;99.90;;;;;;5027481;28;20205;-71
2022/01/28 01:25:16;;;;;;;3.30;1.33;;;7.80;99.90;;;;;;5027494;28;20205;-72
2022/01/28 01:27:48;;;;;;;6.60;1.60;;;7.70;99.90;;;;;;5028898;28;20221;-71
2022/01/28 01:30:16;;;;;;;5.90;1.43;;;7.70;99.90;;;;;;5030331;28;20178;-71
2022/01/28 01:32:44;;;;;;;5.23;1.57;;;7.70;99.90;;;;;;5028211;28;20174;-71
2022/01/28 01:35:10;;;;;;;5.57;1.60;;;7.70;99.90;;;;;;5030996;28;20238;-72
2022/01/28 01:37:40;;;;;;;9.77;1.70;;;7.70;99.90;;;;;;5028502;28;20201;-72
2022/01/28 01:40:09;;;;;;;5.80;1.33;;;7.60;99.90;;;;;;5025348;28;20182;-72
2022/01/28 01:43:05;;;;;;;4.23;1.23;;;7.60;99.90;;;;;;5027051;28;20224;-71
2022/01/28 01:53:29;;;;;;;5.17;1.50;;;7.50;99.90;;;;;;5028550;28;20196;-71
2022/01/28 01:55:58;;;;;;;3.90;1.40;;;7.40;99.90;;;;;;5040750;28;20197;-69
2022/01/28 01:58:30;;;;;;;3.93;1.30;;;7.40;99.90;;;;;;5029279;28;20189;-71
2022/01/28 02:00:58;;;;;;;5.23;1.50;;;7.40;99.90;;;;;;5028739;28;20197;-68
2022/01/28 02:03:24;;;;;;;6.77;1.47;;;7.30;99.90;;;;;;5025255;28;20197;-70
2022/01/28 02:05:52;;;;;;;4.17;1.20;;;7.30;99.90;;;;;;5030915;28;20204;-71
2022/01/28 02:08:20;;;;;;;4.27;1.30;;;7.20;99.90;;;;;;5033058;28;20174;-72
2022/01/28 02:10:49;;;;;;;5.37;1.50;;;7.20;99.90;;;;;;5035805;28;20178;-71
2022/01/28 02:13:19;;;;;;;6.30;1.43;;;7.20;99.90;;;;;;5039528;28;20266;-70
2022/01/28 02:15:47;;;;;;;5.83;1.37;;;7.10;99.90;;;;;;5029847;28;20179;-67
2022/01/28 02:18:12;;;;;;;5.37;1.30;;;7.10;99.90;;;;;;5029505;28;20166;-72
2022/01/28 02:20:43;;;;;;;4.93;1.30;;;7.00;99.90;;;;;;5027825;28;20269;-69
2022/01/28 02:23:09;;;;;;;5.37;1.20;;;7.00;99.90;;;;;;5034310;28;20251;-72
2022/01/28 02:25:40;;;;;;;4.70;1.30;;;7.00;99.90;;;;;;5030882;28;20198;-72
2022/01/28 02:28:10;;;;;;;6.43;1.20;;;6.90;99.90;;;;;;5029926;28;20220;-69
2022/01/28 02:30:36;;;;;;;7.17;1.53;;;6.90;99.90;;;;;;5026807;28;20203;-70
2022/01/28 02:33:08;;;;;;;8.80;1.40;;;6.90;99.90;;;;;;5030274;28;20205;-71
2022/01/28 02:35:41;;;;;;;4.07;1.10;;;6.90;99.90;;;;;;5033545;28;20186;-71
2022/01/28 02:38:07;;;;;;;5.30;1.30;;;6.80;99.90;;;;;;5031482;28;20182;-71
2022/01/28 02:40:33;;;;;;;6.57;1.57;;;6.80;99.90;;;;;;5034331;28;20182;-71
2022/01/28 02:43:24;;;;;;;3.50;1.10;;;6.80;99.90;;;;;;5034278;28;20217;-72
2022/01/28 02:45:53;;;;;;;4.70;1.57;;;6.70;99.90;;;;;;5031936;28;20227;-71
2022/01/28 02:48:22;;;;;;;3.27;1.13;;;6.70;99.90;;;;;;5027017;28;20226;-72
2022/01/28 02:51:14;;;;;;;3.73;1.13;;;6.70;99.90;;;;;;5034248;28;20198;-72
2022/01/28 02:53:52;;;;;;;6.47;1.17;;;6.60;99.90;;;;;;5034370;28;20193;-74
2022/01/28 02:56:24;;;;;;;5.07;1.30;;;6.60;99.90;;;;;;5025091;28;20182;-73
2022/01/28 02:58:51;;;;;;;5.33;1.23;;;6.60;99.90;;;;;;5021777;28;20181;-75
2022/01/28 03:01:21;;;;;;;7.63;1.33;;;6.60;99.90;;;;;;5028262;28;20206;-74
2022/01/28 03:03:51;;;;;;;4.40;1.27;;;6.60;99.90;;;;;;5033210;28;20202;-73
2022/01/28 03:06:20;;;;;;;3.67;1.10;;;6.50;99.90;;;;;;5033784;28;20182;-75
2022/01/28 03:09:15;;;;;;;3.50;0.93;;;6.50;99.90;;;;;;5034266;28;20185;-73
2022/01/28 03:14:16;;;;;;;3.33;1.20;;;6.50;99.90;;;;;;5032976;28;20171;-72
2022/01/28 03:17:14;;;;;;;4.77;1.20;;;6.50;99.90;;;;;;5032280;28;20170;-75
2022/01/28 03:19:45;;;;;;;4.23;1.20;;;6.40;99.90;;;;;;5029014;28;20191;-73
2022/01/28 03:22:13;;;;;;;4.40;1.10;;;6.40;99.90;;;;;;5034710;28;20197;-72
2022/01/28 03:24:41;;;;;;;5.73;1.20;;;6.40;99.90;;;;;;5031233;28;20197;-73
2022/01/28 03:27:12;;;;;;;6.80;1.30;;;6.40;99.90;;;;;;5033985;28;20181;-74
2022/01/28 03:29:42;;;;;;;4.07;1.33;;;6.40;99.90;;;;;;5031618;28;20185;-70
2022/01/28 03:32:08;;;;;;;5.23;1.13;;;6.40;99.90;;;;;;5027201;28;20198;-72
2022/01/28 03:34:36;;;;;;;5.37;1.17;;;6.40;99.90;;;;;;5030364;28;20181;-73
2022/01/28 03:37:04;;;;;;;4.20;1.37;;;6.40;99.90;;;;;;5047426;28;20260;-73
2022/01/28 03:39:32;;;;;;;2.90;1.30;;;6.40;99.90;;;;;;5032878;28;20208;-71
2022/01/28 03:42:00;;;;;;;6.30;1.20;;;6.40;99.90;;;;;;5034636;28;20206;-73
2022/01/28 03:44:28;;;;;;;5.67;1.00;;;6.40;99.90;;;;;;5039123;28;20205;-73
2022/01/28 03:46:56;;;;;;;9.33;1.40;;;6.40;99.90;;;;;;5032377;28;20205;-69
2022/01/28 03:49:23;;;;;;;8.10;1.27;;;6.40;99.90;;;;;;5033008;28;20277;-72
2022/01/28 03:51:49;;;;;;;4.73;1.10;;;6.40;99.90;;;;;;5030536;28;20179;-75
2022/01/28 03:54:17;;;;;;;4.97;1.10;;;6.40;99.90;;;;;;5032772;28;20208;-71
2022/01/28 03:56:42;;;;;;;3.40;1.20;;;6.40;99.90;;;;;;5032645;28;20173;-73
2022/01/28 03:59:08;;;;;;;3.77;1.20;;;6.40;99.90;;;;;;5031805;28;20274;-71
2022/01/28 04:01:37;;;;;;;4.70;1.30;;;6.40;99.90;;;;;;5033816;28;20264;-74
2022/01/28 04:04:54;;;;;;;4.03;1.00;;;6.30;99.90;;;;;;5037193;28;20178;-75
2022/01/28 04:12:23;;;;;;;5.07;1.20;;;6.30;99.90;;;;;;5027123;28;20337;-73
2022/01/28 04:15:08;;;;;;;4.83;1.00;;;6.40;99.90;;;;;;5033760;28;20337;-73
2022/01/28 04:17:33;;;;;;;6.50;1.40;;;6.40;99.90;;;;;;5032369;28;20265;-74
2022/01/28 04:19:59;;;;;;;5.90;1.33;;;6.40;99.90;;;;;;5032161;28;20233;-74
2022/01/28 04:22:27;;;;;;;4.67;1.30;;;6.40;99.90;;;;;;5030617;28;20344;-71
2022/01/28 04:24:54;;;;;;;3.17;1.03;;;6.40;99.90;;;;;;5031952;28;20193;-74
2022/01/28 04:27:19;;;;;;;8.40;1.50;;;6.40;99.90;;;;;;5030993;28;20190;-74
2022/01/28 04:29:47;;;;;;;7.93;1.40;;;6.40;99.90;;;;;;5032916;28;20440;-73
2022/01/28 04:32:17;;;;;;;4.27;0.97;;;6.40;99.90;;;;;;5031574;28;20202;-73
2022/01/28 04:34:45;;;;;;;4.53;1.30;;;6.40;99.90;;;;;;5036371;28;20182;-74
2022/01/28 04:37:31;;;;;;;2.87;1.20;;;6.40;99.90;;;;;;5032271;28;20185;-71
2022/01/28 04:40:27;;;;;;;5.67;1.20;;;6.40;99.90;;;;;;5031393;28;20197;-73
2022/01/28 05:28:06;;;;;;;4.30;1.20;;;5.90;99.90;;;;;;5023920;28;20189;-73
2022/01/28 05:30:32;;;;;;;3.83;1.17;;;5.90;99.90;;;;;;5025555;28;20178;-73
2022/01/28 05:32:57;;;;;;;4.10;1.20;;;5.90;99.90;;;;;;5029544;28;20189;-71
2022/01/28 05:35:27;;;;;;;3.37;1.10;;;5.90;99.90;;;;;;5037139;28;20193;-71
2022/01/28 05:37:52;;;;;;;3.57;1.20;;;5.80;99.90;;;;;;5028288;28;20178;-69
2022/01/28 05:40:22;;;;;;;4.80;1.30;;;5.80;99.90;;;;;;5029918;28;20213;-72
2022/01/28 05:42:51;;;;;;;6.43;1.20;;;5.80;99.90;;;;;;5036722;28;20480;-72
2022/01/28 05:45:16;;;;;;;3.07;1.07;;;5.80;99.90;;;;;;5032156;28;20178;-71
2022/01/28 05:47:42;;;;;;;4.70;1.30;;;5.80;99.90;;;;;;5035841;28;20201;-71
2022/01/28 05:50:12;;;;;;;5.77;1.50;;;5.80;99.90;;;;;;5028453;28;20193;-70
2022/01/28 05:52:37;;;;;;;4.27;1.27;;;5.80;99.90;;;;;;5040153;28;20177;-73
2022/01/28 05:55:06;;;;;;;4.57;1.40;;;5.80;99.90;;;;;;5035896;28;20198;-72
2022/01/28 05:57:31;;;;;;;6.33;1.20;;;5.80;99.90;;;;;;5030722;28;20181;-72
2022/01/28 05:59:57;;;;;;;5.03;1.40;;;5.80;99.90;;;;;;5031905;28;20257;-72
2022/01/28 06:02:25;;;;;;;5.23;1.50;;;5.80;99.90;;;;;;5036267;28;20210;-72
2022/01/28 06:04:53;;;;;;;4.70;1.20;;;5.80;99.90;;;;;;5034478;28;20193;-72
2022/01/28 06:07:20;;;;;;;3.53;1.30;;;5.80;99.90;;;;;;5034647;28;20178;-72
2022/01/28 06:09:46;;;;;;;4.50;1.30;;;5.80;99.90;;;;;;5035322;28;20173;-72
2022/01/28 06:12:14;;;;;;;6.47;1.27;;;5.90;99.90;;;;;;5032126;28;20194;-68
2022/01/28 06:14:40;;;;;;;4.43;1.37;;;5.90;99.90;;;;;;5026059;28;20186;-72
2022/01/28 06:17:08;;;;;;;2.93;1.20;;;5.90;99.90;;;;;;5041475;28;20206;-72
2022/01/28 06:19:33;;;;;;;6.23;1.60;;;6.00;99.90;;;;;;5032146;28;20182;-69
2022/01/28 06:21:59;;;;;;;5.07;1.40;;;6.00;99.90;;;;;;5034984;28;20220;-72
2022/01/28 06:24:25;;;;;;;4.90;1.40;;;6.00;99.90;;;;;;5034221;28;20228;-70
2022/01/28 06:26:50;;;;;;;6.23;1.47;;;6.00;99.90;;;;;;5032421;28;20265;-71
2022/01/28 06:29:19;;;;;;;3.97;1.20;;;6.10;99.90;;;;;;5034307;28;20210;-71
2022/01/28 06:31:44;;;;;;;3.87;1.30;;;6.10;99.90;;;;;;5034567;28;20467;-71
2022/01/28 06:34:10;;;;;;;4.10;1.63;;;6.10;99.90;;;;;;5033842;28;20277;-69
2022/01/28 06:36:40;;;;;;;6.40;1.40;;;6.10;99.90;;;;;;5034435;28;20202;-72
2022/01/28 06:39:06;;;;;;;3.80;1.27;;;6.10;99.90;;;;;;5024333;28;20198;-73
2022/01/28 06:41:31;;;;;;;4.40;1.40;;;6.10;99.90;;;;;;5027825;28;20220;-72
2022/01/28 06:43:58;;;;;;;4.07;1.40;;;6.10;99.90;;;;;;5033044;28;20376;-74
2022/01/28 06:46:24;;;;;;;5.03;1.50;;;6.10;99.90;;;;;;5024234;28;20195;-72
2022/01/28 06:48:50;;;;;;;4.90;1.50;;;6.10;99.90;;;;;;5029922;28;20170;-70
2022/01/28 06:51:16;;;;;;;5.30;1.40;;;6.10;99.90;;;;;;5033873;28;20189;-71
2022/01/28 06:53:44;;;;;;;4.90;1.47;;;6.10;99.90;;;;;;5029037;28;20185;-72
2022/01/28 06:56:10;;;;;;;4.70;1.73;;;6.00;99.90;;;;;;5030654;28;20198;-72
2022/01/28 06:58:35;;;;;;;6.07;1.77;;;6.00;99.90;;;;;;5050963;28;20272;-74
2022/01/28 07:01:01;;;;;;;3.60;1.50;;;6.00;99.90;;;;;;5031873;28;20186;-67
2022/01/28 07:03:26;;;;;;;7.43;1.90;;;6.00;99.90;;;;;;5044297;28;20256;-70
2022/01/28 07:05:52;;;;;;;5.43;2.20;;;6.00;99.90;;;;;;5034074;28;20174;-72
2022/01/28 07:08:18;;;;;;;5.40;1.90;;;6.00;99.90;;;;;;5028797;28;20176;-72
2022/01/28 07:10:45;;;;;;;6.73;1.93;;;6.00;99.90;;;;;;5032713;28;20240;-75
2022/01/28 07:13:13;;;;;;;9.10;2.33;;;6.00;99.90;;;;;;5032746;28;20190;-72
2022/01/28 07:15:42;;;;;;;5.23;1.97;;;6.00;99.90;;;;;;5034856;28;20276;-73
2022/01/28 07:18:10;;;;;;;4.33;1.67;;;6.00;99.90;;;;;;5033125;28;20193;-68
2022/01/28 07:20:36;;;;;;;6.63;1.60;;;6.00;99.90;;;;;;5032050;28;20235;-73
2022/01/28 07:23:04;;;;;;;7.90;1.97;;;6.00;99.90;;;;;;5033506;28;20193;-73
2022/01/28 07:25:33;;;;;;;5.67;1.97;;;6.00;99.90;;;;;;5033675;28;20407;-70
2022/01/28 07:27:59;;;;;;;4.20;2.00;;;6.00;99.90;;;;;;5039164;28;20175;-73
2022/01/28 07:30:24;;;;;;;6.00;2.20;;;6.00;99.90;;;;;;5034437;28;20182;-74
2022/01/28 07:32:51;;;;;;;6.00;1.80;;;6.00;99.90;;;;;;5030811;28;20178;-74
2022/01/28 07:35:17;;;;;;;5.77;2.00;;;5.90;99.90;;;;;;5024677;28;20262;-74
2022/01/28 07:37:43;;;;;;;3.40;1.60;;;6.00;99.90;;;;;;5034621;28;20233;-73
2022/01/28 07:40:10;;;;;;;4.17;1.87;;;6.00;99.90;;;;;;5052577;28;20267;-75
2022/01/28 07:42:37;;;;;;;9.00;2.30;;;6.00;99.90;;;;;;5041204;28;20352;-76
2022/01/28 07:45:10;;;;;;;5.50;2.23;;;6.00;99.90;;;;;;5032909;28;20272;-76
2022/01/28 07:47:36;;;;;;;4.87;2.03;;;6.00;99.90;;;;;;5030948;28;20212;-78
2022/01/28 07:50:04;;;;;;;4.57;2.10;;;6.00;99.90;;;;;;5031886;28;20174;-75
2022/01/28 07:52:29;;;;;;;5.63;1.90;;;6.00;99.90;;;;;;5033840;28;20180;-80
2022/01/28 07:54:55;;;;;;;6.37;2.30;;;6.00;99.90;;;;;;5025980;28;20178;-80
2022/01/28 07:57:21;;;;;;;6.23;2.20;;;6.10;99.90;;;;;;5030109;28;20182;-82
2022/01/28 07:59:46;;;;;;;6.50;2.00;;;6.10;99.90;;;;;;5030049;28;20189;-76
2022/01/28 08:02:12;;;;;;;7.23;1.80;;;6.10;99.90;;;;;;5031968;28;20220;-83
2022/01/28 08:04:41;;;;;;;5.80;1.80;;;6.10;99.90;;;;;;5029264;28;20197;-87
2022/01/28 08:07:06;;;;;;;5.20;1.80;;;6.20;99.90;;;;;;5033710;28;20185;-81
2022/01/28 08:09:32;;;;;;;5.13;1.80;;;6.20;99.90;;;;;;5034327;28;20174;-80
2022/01/28 08:11:58;;;;;;;4.03;1.90;;;6.20;99.90;;;;;;5029174;28;20256;-80
2022/01/28 08:14:24;;;;;;;4.13;1.63;;;6.20;99.90;;;;;;5042590;28;20254;-81
2022/01/28 08:16:50;;;;;;;3.73;1.63;;;6.20;99.90;;;;;;5029195;28;20197;-74
2022/01/28 08:19:16;;;;;;;5.00;1.70;;;6.20;99.90;;;;;;5020518;28;20288;-86
2022/01/28 08:21:43;;;;;;;6.37;1.90;;;6.30;99.90;;;;;;5031965;28;20206;-81
2022/01/28 08:24:09;;;;;;;4.47;1.67;;;6.30;99.90;;;;;;5029902;28;20317;-76
2022/01/28 08:26:35;;;;;;;6.17;2.30;;;6.40;99.90;;;;;;5027405;28;20269;-71
2022/01/28 08:29:01;;;;;;;7.20;2.40;;;6.40;99.90;;;;;;5031216;28;20208;-76
2022/01/28 08:31:26;;;;;;;5.83;2.50;;;6.40;99.90;;;;;;5031976;28;20186;-76
2022/01/28 08:33:52;;;;;;;8.73;2.70;;;6.40;99.90;;;;;;5020715;28;20258;-81
2022/01/28 08:36:20;;;;;;;4.80;2.03;;;6.50;99.90;;;;;;5028725;28;20328;-77
2022/01/28 08:38:49;;;;;;;7.27;2.53;;;6.50;99.90;;;;;;5034448;28;20178;-77
2022/01/28 08:41:20;;;;;;;5.20;2.33;;;6.50;99.90;;;;;;5035709;28;20292;-78
2022/01/28 08:43:46;;;;;;;7.67;2.53;;;6.60;99.90;;;;;;5030865;28;20179;-75
2022/01/28 08:46:12;;;;;;;6.13;2.57;;;6.60;99.90;;;;;;5030410;28;20197;-77
2022/01/28 08:48:38;;;;;;;4.43;2.27;;;6.60;99.90;;;;;;5024643;28;20178;-79
2022/01/28 08:51:07;;;;;;;7.00;2.50;;;6.60;99.90;;;;;;5027050;28;20189;-76
2022/01/28 08:53:33;;;;;;;8.70;2.70;;;6.70;99.90;;;;;;5031762;28;20240;-77
2022/01/28 08:55:59;;;;;;;4.77;2.23;;;6.70;99.90;;;;;;5039048;28;20279;-78
2022/01/28 08:58:25;;;;;;;4.83;2.33;;;6.80;99.90;;;;;;5030791;28;20174;-76
2022/01/28 09:00:53;;;;;;;5.43;2.90;;;6.80;99.90;;;;;;5028473;28;20200;-86
2022/01/28 09:03:21;;;;;;;6.87;3.20;;;6.90;99.90;;;;;;5026242;28;20197;-71
2022/01/28 09:05:49;;;;;;;9.43;3.07;;;6.90;99.90;;;;;;5027540;28;20182;-78
2022/01/28 09:08:15;;;;;;;9.97;3.70;;;7.00;99.90;;;;;;5027669;28;20209;-79
2022/01/28 09:10:57;;;;;;;9.30;3.40;;;7.30;99.90;;;;;;5045906;28;20190;-80
2022/01/28 09:13:30;;;;;;;9.17;3.47;;;7.40;99.90;;;;;;5030496;28;20220;-79
2022/01/28 09:15:57;;;;;;;10.63;4.10;;;7.70;99.90;;;;;;5027298;28;20483;-66
2022/01/28 09:18:24;;;;;;;9.13;3.70;;;7.70;99.90;;;;;;5024877;28;20372;-76
2022/01/28 09:20:50;;;;;;;11.30;4.13;;;7.80;99.90;;;;;;5033813;28;20221;-75
2022/01/28 09:23:20;;;;;;;10.30;4.53;;;7.80;99.90;;;;;;5041889;28;20216;-80
2022/01/28 09:25:49;;;;;;;6.60;3.20;;;7.90;99.90;;;;;;5028537;28;20190;-80
2022/01/28 09:28:15;;;;;;;10.07;3.67;;;7.90;99.90;;;;;;5027375;28;20189;-74
2022/01/28 09:30:43;;;;;;;6.87;3.07;;;7.90;99.90;;;;;;5030431;28;20187;-77
2022/01/28 09:33:12;;;;;;;8.10;3.20;;;8.00;99.90;;;;;;5043970;28;20209;-79
2022/01/28 09:35:41;;;;;;;6.50;3.20;;;8.00;99.90;;;;;;5023303;28;20186;-78
2022/01/28 09:38:07;;;;;;;7.50;3.00;;;8.10;99.90;;;;;;5025849;28;20187;-82
2022/01/28 09:40:33;;;;;;;6.27;3.00;;;8.30;99.90;;;;;;5029860;28;20247;-86
2022/01/28 09:43:00;;;;;;;9.37;3.57;;;8.60;99.90;;;;;;5030362;28;20210;-75
2022/01/28 09:45:28;;;;;;;10.87;3.23;;;8.70;99.90;;;;;;5028189;28;20190;-77
2022/01/28 09:47:56;;;;;;;7.87;2.87;;;8.70;99.90;;;;;;5028494;28;20205;-69
2022/01/28 09:50:33;;;;;;;5.77;2.50;;;8.70;99.90;;;;;;5025417;28;20182;-82
2022/01/28 09:52:59;;;;;;;8.40;3.70;;;8.70;99.90;;;;;;5030615;28;20182;-77
2022/01/28 09:55:26;;;;;;;8.67;3.33;;;8.70;99.90;;;;;;5028381;28;20178;-77
2022/01/28 09:57:56;;;;;;;7.23;3.00;;;8.70;99.90;;;;;;5021184;28;20498;-77
2022/01/28 10:00:25;;;;;;;8.63;2.67;;;8.70;99.90;;;;;;5043028;28;20195;-75
2022/01/28 10:02:59;;;;;;;10.77;2.80;;;8.70;99.90;;;;;;5023239;28;20218;-73
2022/01/28 10:05:36;;;;;;;7.10;2.50;;;8.70;99.90;;;;;;5022039;28;20174;-78
2022/01/28 10:08:08;;;;;;;6.87;2.70;;;8.70;99.90;;;;;;5050145;28;20234;-83
2022/01/28 10:10:55;;;;;;;7.87;2.80;;;8.80;99.90;;;;;;5030627;28;20181;-78
2022/01/28 10:13:36;;;;;;;9.93;3.40;;;8.90;99.90;;;;;;5036555;28;20240;-82
2022/01/28 10:16:05;;;;;;;8.17;3.27;;;9.00;99.90;;;;;;5037060;28;20177;-79
2022/01/28 10:18:42;;;;;;;8.90;2.90;;;9.10;99.90;;;;;;5052480;28;20225;-77
2022/01/28 10:21:30;;;;;;;9.53;3.37;;;9.10;99.90;;;;;;5045513;28;20262;-79
2022/01/28 10:23:56;;;;;;;7.93;3.17;;;9.20;99.90;;;;;;5048055;28;20240;-73
2022/01/28 10:26:32;;;;;;;8.03;3.50;;;9.30;99.90;;;;;;5029484;28;20225;-80
2022/01/28 10:28:59;;;;;;;9.13;3.37;;;9.40;99.90;;;;;;5033868;28;20244;-70
2022/01/28 10:31:43;;;;;;;7.97;3.07;;;9.50;99.90;;;;;;5031634;28;20186;-80
2022/01/28 10:34:17;;;;;;;9.87;3.10;;;9.60;99.90;;;;;;5048371;28;20213;-76
2022/01/28 10:36:47;;;;;;;11.10;3.53;;;9.70;99.90;;;;;;5037364;28;20217;-80
2022/01/28 10:39:25;;;;;;;10.02;4.07;;;9.80;99.90;;;;;;5033134;28;20256;-81
2022/01/28 10:42:00;;;;;;;10.85;4.07;;;9.80;99.90;;;;;;5046302;28;20209;-73
2022/01/28 10:44:31;;;;;;;8.30;4.00;;;9.80;99.90;;;;;;5032475;28;20265;-82
2022/01/28 10:47:03;;;;;;;14.37;4.50;;;9.80;99.90;;;;;;5030439;28;20209;-74
2022/01/28 10:49:34;;;;;;;11.87;4.37;;;9.70;99.90;;;;;;5025912;28;20198;-77
2022/01/28 10:52:14;;;;;;;6.83;3.70;;;9.80;99.90;;;;;;5031082;28;20218;-76
2022/01/28 10:54:44;;;;;;;12.27;4.28;;;9.90;99.90;;;;;;5027112;28;20186;-72
2022/01/28 10:57:10;;;;;;;8.57;3.88;;;9.90;99.90;;;;;;5034879;28;20193;-80
2022/01/28 10:59:43;;;;;;;12.48;4.65;;;10.00;99.90;;;;;;5032265;28;20244;-80
2022/01/28 11:02:09;;;;;;;9.52;4.15;;;10.00;99.90;;;;;;5019991;28;20214;-78
2022/01/28 11:04:34;;;;;;;13.32;4.40;;;10.00;99.90;;;;;;5027348;28;20194;-82
2022/01/28 11:07:02;;;;;;;9.98;3.70;;;10.00;99.90;;;;;;5032104;28;20181;-78
2022/01/28 11:09:30;;;;;;;10.18;3.50;;;10.00;99.90;;;;;;5030361;28;20181;-73
2022/01/28 11:12:00;;;;;;;8.10;3.38;;;10.00;99.90;;;;;;5034618;28;20239;-84
2022/01/28 11:14:26;;;;;;;10.88;3.65;;;10.00;99.90;;;;;;5048619;28;20193;-81
2022/01/28 11:16:52;;;;;;;12.20;4.25;;;10.00;99.90;;;;;;5035719;28;20178;-79
2022/01/28 11:19:20;;;;;;;13.00;3.80;;;10.00;99.90;;;;;;5029567;28;20178;-81
2022/01/28 11:22:04;;;;;;;13.18;3.83;;;10.00;99.90;;;;;;5024793;28;20198;-81
2022/01/28 11:24:54;;;;;;;11.00;3.20;;;9.90;99.90;;;;;;5029795;28;20225;-75
2022/01/28 11:27:40;;;;;;;9.50;3.40;;;9.80;99.90;;;;;;5026789;28;20201;-74
2022/01/28 11:30:18;;;;;;;9.38;3.35;;;9.70;99.90;;;;;;5032311;28;20224;-77
2022/01/28 11:32:53;;;;;;;8.68;3.25;;;9.60;99.90;;;;;;5041860;28;20190;-78
2022/01/28 11:35:22;;;;;;;12.38;3.47;;;9.60;99.90;;;;;;5031227;28;20224;-77
2022/01/28 11:37:48;;;;;;;11.03;3.43;;;9.60;99.90;;;;;;5030955;28;20182;-78
2022/01/28 11:40:18;;;;;;;7.87;3.20;;;9.60;99.90;;;;;;5030563;28;20194;-77
2022/01/28 11:42:44;;;;;;;7.50;2.90;;;9.60;99.90;;;;;;5028444;28;20209;-73
2022/01/28 11:45:11;;;;;;;7.40;3.27;;;9.60;99.90;;;;;;5044073;28;20182;-69
2022/01/28 11:47:58;;;;;;;9.32;3.13;;;9.60;99.90;;;;;;5042393;28;20346;-69
2022/01/28 11:50:24;;;;;;;10.75;3.30;;;9.70;99.90;;;;;;5036404;28;20295;-72
2022/01/28 11:52:56;;;;;;;9.05;2.88;;;9.80;99.90;;;;;;5029774;28;20189;-73
2022/01/28 11:55:23;;;;;;;9.35;2.65;;;9.90;99.90;;;;;;5031514;28;20320;-77
2022/01/28 11:58:11;;;;;;;7.78;3.10;;;10.00;99.90;;;;;;5030596;28;20173;-80
2022/01/28 12:00:44;;;;;;;7.00;2.22;;;10.10;99.90;;;;;;5028119;28;20186;-79
2022/01/28 12:03:24;;;;;;;11.38;2.88;;;10.20;99.90;;;;;;5035350;28;20198;-81
2022/01/28 12:05:54;;;;;;;6.57;2.25;;;10.20;99.90;;;;;;5032730;28;20197;-74
2022/01/28 12:08:23;;;;;;;6.47;2.10;;;10.20;99.90;;;;;;5033018;28;20174;-77
2022/01/28 12:10:51;;;;;;;7.00;2.00;;;10.20;99.90;;;;;;5039439;28;20189;-80
2022/01/28 12:13:21;;;;;;;5.88;2.33;;;10.10;99.90;;;;;;5029236;28;20197;-78
2022/01/28 12:18:44;;;;;;;10.60;2.33;;;9.90;99.90;;;;;;5026212;28;20265;-76
2022/01/28 12:21:19;;;;;;;6.25;2.00;;;9.80;99.90;;;;;;5033176;28;20216;-78
2022/01/28 12:23:48;;;;;;;10.13;2.00;;;9.80;99.90;;;;;;5034056;28;20178;-79
2022/01/28 12:26:18;;;;;;;6.63;1.92;;;9.70;99.90;;;;;;5043205;28;20186;-81
2022/01/28 12:28:54;;;;;;;9.38;1.92;;;9.70;99.90;;;;;;5039543;28;20268;-79
2022/01/28 12:31:29;;;;;;;5.97;1.88;;;9.70;99.90;;;;;;5032983;28;20178;-78
2022/01/28 12:34:01;;;;;;;6.70;1.80;;;9.80;99.90;;;;;;5028845;28;20197;-76
2022/01/28 12:36:35;;;;;;;9.55;2.10;;;10.00;99.90;;;;;;5042428;28;20251;-78
2022/01/28 12:39:19;;;;;;;;;;;;;;;;;;;;;
2022/01/28 12:41:54;;;;;;;6.70;1.80;;;10.60;99.90;;;;;;5033104;28;20223;-79
2022/01/28 12:44:20;;;;;;;7.80;2.60;;;10.80;99.90;;;;;;5033792;28;20177;-81
2022/01/28 12:46:57;;;;;;;4.13;2.05;;;11.00;99.90;;;;;;5031155;28;20269;-75
2022/01/28 12:49:24;;;;;;;7.93;2.70;;;11.10;99.90;;;;;;5033607;28;20242;-78
2022/01/28 12:51:55;;;;;;;8.18;2.42;;;11.20;99.90;;;;;;5029054;28;20216;-76
2022/01/28 12:54:36;;;;;;;7.85;2.45;;;11.30;99.90;;;;;;5032132;28;20207;-73
2022/01/28 12:57:05;;;;;;;8.02;2.65;;;11.50;99.90;;;;;;5035688;28;20228;-75
2022/01/28 12:59:31;;;;;;;7.22;1.95;;;11.60;99.90;;;;;;5047307;28;20189;-74
2022/01/28 13:01:57;;;;;;;5.70;1.63;;;11.60;99.90;;;;;;5031404;28;20255;-72
2022/01/28 13:04:36;;;;;;;4.90;1.42;;;11.60;99.90;;;;;;5031227;28;20214;-70
2022/01/28 13:09:49;;;;;;;3.70;1.60;;;11.40;99.90;;;;;;5029352;28;20181;-73
2022/01/28 13:12:25;;;;;;;4.38;1.73;;;11.30;99.90;;;;;;5030369;28;20201;-77
2022/01/28 13:14:53;;;;;;;4.85;1.65;;;11.20;99.90;;;;;;5031115;28;20248;-72
2022/01/28 13:17:24;;;;;;;5.18;1.95;;;11.00;99.90;;;;;;5025616;28;20178;-77
2022/01/28 13:19:57;;;;;;;4.60;1.50;;;10.90;99.90;;;;;;5029802;28;20221;-73
2022/01/28 13:22:27;;;;;;;6.35;1.60;;;10.80;99.90;;;;;;5030681;28;20197;-71
2022/01/28 13:24:54;;;;;;;3.75;1.50;;;10.90;99.90;;;;;;5032950;28;20282;-72
2022/01/28 13:27:21;;;;;;;6.30;1.90;;;11.00;99.90;;;;;;5034550;28;20177;-70
2022/01/28 13:29:56;;;;;;;7.20;1.92;;;11.10;99.90;;;;;;5030756;28;20183;-76
2022/01/28 13:32:39;;;;;;;6.55;1.67;;;11.30;99.90;;;;;;5031727;28;20177;-74
2022/01/28 13:35:24;;;;;;;6.55;1.60;;;11.40;99.90;;;;;;5028815;28;20192;-72
2022/01/28 13:37:53;;;;;;;5.85;1.85;;;11.50;99.90;;;;;;5028146;28;20189;-73
2022/01/28 13:40:23;;;;;;;6.95;1.95;;;11.50;99.90;;;;;;5029055;28;20220;-74
2022/01/28 13:43:18;;;;;;;5.15;1.50;;;11.50;99.90;;;;;;5027339;28;20259;-74
2022/01/28 13:45:54;;;;;;;5.05;1.90;;;11.50;99.90;;;;;;5029317;28;20189;-71
2022/01/28 13:48:34;;;;;;;4.65;1.60;;;11.60;99.90;;;;;;5026052;28;20201;-73
2022/01/28 13:51:12;;;;;;;5.82;1.92;;;11.60;99.90;;;;;;5031464;28;20200;-70
2022/01/28 13:54:15;;;;;;;3.88;1.42;;;11.60;99.90;;;;;;5030636;28;20174;-74
2022/01/28 13:56:36;;;;;;;5.18;2.08;;;11.70;99.90;;;;;;5031549;28;20182;-72
2022/01/28 13:59:35;;;;;;;8.45;2.70;;;11.70;99.90;;;;;;5030938;28;20280;-73
2022/01/28 14:02:01;;;;;;;5.00;1.85;;;11.60;99.90;;;;;;5038195;28;20220;-67
2022/01/28 14:04:35;;;;;;;7.90;1.83;;;11.60;99.90;;;;;;5035332;28;20198;-74
2022/01/28 14:07:16;;;;;;;4.97;1.77;;;11.60;99.90;;;;;;5043717;28;20181;-71
2022/01/28 14:09:50;;;;;;;8.13;2.28;;;11.50;99.90;;;;;;5029952;28;20175;-77
2022/01/28 14:12:28;;;;;;;6.47;2.05;;;11.50;99.90;;;;;;5027197;28;20185;-76
2022/01/28 14:15:08;;;;;;;6.43;2.20;;;11.50;99.90;;;;;;5026799;28;20182;-75
2022/01/28 14:17:34;;;;;;;6.88;1.60;;;11.40;99.90;;;;;;5033243;28;20185;-68
2022/01/28 14:20:02;;;;;;;8.02;1.90;;;11.40;99.90;;;;;;5029785;28;20209;-73
2022/01/28 14:22:30;;;;;;;7.93;2.10;;;11.30;99.90;;;;;;5033419;28;20198;-73
2022/01/28 14:24:58;;;;;;;10.02;2.03;;;11.30;99.90;;;;;;5034537;28;20197;-70
2022/01/28 14:27:47;;;;;;;5.25;1.98;;;11.30;99.90;;;;;;5033623;28;20188;-68
2022/01/28 14:30:35;;;;;;;8.55;1.80;;;11.30;99.90;;;;;;5031840;28;20177;-71
2022/01/28 14:33:04;;;;;;;4.20;1.77;;;11.30;99.90;;;;;;5024380;28;20193;-72
2022/01/28 14:35:30;;;;;;;5.95;1.70;;;11.30;99.90;;;;;;5041282;28;20233;-74
2022/01/28 14:37:55;;;;;;;5.63;2.10;;;11.10;99.90;;;;;;5032879;28;20182;-79
2022/01/28 14:40:21;;;;;;;7.32;1.90;;;11.00;99.90;;;;;;5032289;28;20184;-75
2022/01/28 14:42:47;;;;;;;5.88;2.00;;;10.90;99.90;;;;;;5031238;28;20205;-73